Long Lake, MI (48743)

8:01 PM EDT on March 30, 2015 (GMT -0400)
Rose Township | | Change Station
CLOSE
Current Station
Personal Weather Station
Location: Lupton, MI
Elevation: 922 ft
Nearby Weather Stations

Elev 922 ft 44.43 °N, 84.01 °W | Updated 7 seconds ago

Clear
Clear
35.8 °F
Feels Like 36 °F
N
0.0
Wind Variable Wind from North
Gusts 0.0 mph

Today
High -- | Low -- °F
--% Chance of Precip.
Yesterday
High -- | Low -- °F
Precip. -- in
7:20 AM 8:00 PM
Waxing Gibbous, 83% visible
Pressure 29.91 in
Visibility 10.0 miles
Clouds Scattered Clouds 5500 ft
Windchill 36 °F
Dew Point 21 °F
Humidity 55%
Rainfall 0.05 in
Snow Depth Not available.
UV 0 out of 12
Pollen 5.60 out of 12
Air Quality Not available.
Flu Activity Not available.
METAR KOSC 302354Z AUTO 29005KT 10SM SCT055 03/M07 A2991 RMK AO2 T00321073

More Conditions Fewer Conditions

Pressure 29.91 in
Visibility 10.0 miles
Clouds Scattered Clouds 5500 ft
Windchill 36 °F
Dew Point 21 °F
Humidity 55%
Rainfall 0.05 in
Snow Depth Not available.
UV 0 out of 12
Pollen 5.60 out of 12
Air Quality Not available.
Flu Activity Not available.
METAR KOSC 302354Z AUTO 29005KT 10SM SCT055 03/M07 A2991 RMK AO2 T00321073

More Conditions Fewer Conditions

Nowcast | as of 8:00 PM EDT on March 30, 2015

At 9 PM...mostly clear. Temperature 35. Northwest winds 6 mph. At 11 PM...partly cloudy. Temperature 30. Light winds. At 1 am...mostly cloudy. Temperature 28. Light winds. At 3 am...mostly cloudy. Temperature 26. Light winds.

×

10-Day Weather Forecast

Almanac

Astronomy

Mar. 30, 2015 Rise Set
Actual Time
Civil Twilight
Nautical Twilight
Astronomical Twilight
Moon
Length of Visible Light
Length of Day
Tomorrow will be .
, % of the Moon is Illuminated

Today's Extremes

State Highs State Lows

Community

WunderPhotos

Upload Photos

1,809,618 photos uploaded!

WunderBlogs® & News

Nearby

Air Quality

  Air Quality AQ Index Pollutant
Not available.

Snow Depth

Station Depth Elevation

Earthquake Activity

City Distance Mag. Time & Date
Minimum magnitude displayed is 2.5.

Coastal Water Temperatures

Place Temperature

Stations

Nearby Weather Stations

Station Location Temp. Windchill Dew Point Humidity Wind Precip. Elev Updated Type